Time;durP1;ratioP1;P1;durP2;ratioP2;P2;SDS_P1;SDS_P2;PMS_P1;PMS_P2;Temp;Humidity;BMP_temperature;BMP_pressure;BME280_temperature;BME280_humidity;BME280_pressure;Samples;Min_cycle;Max_cycle;Signal;HPM_P1;HPM_P2
2023/04/08 00:01:05;;;;;;;49.20;30.67;;;8.50;99.90;;;;;;5092732;28;20506;-56
2023/04/08 00:03:31;;;;;;;49.67;30.37;;;8.50;99.90;;;;;;5092296;28;20028;-57
2023/04/08 00:05:57;;;;;;;47.30;30.00;;;8.50;99.90;;;;;;5092336;28;20028;-57
2023/04/08 00:08:22;;;;;;;45.93;30.27;;;8.50;99.90;;;;;;5092292;28;20024;-57
2023/04/08 00:10:48;;;;;;;46.13;29.67;;;8.50;99.90;;;;;;5092270;28;20651;-57
2023/04/08 00:13:14;;;;;;;44.80;29.27;;;8.50;99.90;;;;;;5092333;28;20020;-54
2023/04/08 00:15:40;;;;;;;48.53;31.13;;;8.40;99.90;;;;;;5091938;28;20032;-57
2023/04/08 00:18:07;;;;;;;46.47;29.87;;;8.40;99.90;;;;;;5092165;28;20032;-57
2023/04/08 00:20:32;;;;;;;45.77;29.27;;;8.40;99.90;;;;;;5092115;28;20028;-56
2023/04/08 00:22:58;;;;;;;44.43;28.00;;;8.40;99.90;;;;;;5092192;28;20561;-56
2023/04/08 00:25:24;;;;;;;47.30;29.80;;;8.40;99.90;;;;;;5091712;28;20020;-55
2023/04/08 00:27:50;;;;;;;45.07;29.70;;;8.40;99.90;;;;;;5092049;28;20531;-56
2023/04/08 00:30:15;;;;;;;45.20;27.93;;;8.40;99.90;;;;;;5090625;28;20031;-57
2023/04/08 00:32:42;;;;;;;47.57;31.27;;;8.40;99.90;;;;;;5092040;28;20031;-56
2023/04/08 00:35:08;;;;;;;44.27;29.23;;;8.40;99.90;;;;;;5091721;28;20028;-54
2023/04/08 00:37:34;;;;;;;47.10;30.77;;;8.40;99.90;;;;;;5091672;28;20037;-56
2023/04/08 00:39:59;;;;;;;48.27;31.10;;;8.40;99.90;;;;;;5091512;28;20028;-57
2023/04/08 00:42:25;;;;;;;47.20;30.50;;;8.30;99.90;;;;;;5090553;28;20032;-56
2023/04/08 00:44:51;;;;;;;44.40;29.73;;;8.40;99.90;;;;;;5090015;28;20024;-56
2023/04/08 00:47:17;;;;;;;49.50;31.50;;;8.30;99.90;;;;;;5090193;28;20024;-57
2023/04/08 00:49:44;;;;;;;47.17;31.20;;;8.30;99.90;;;;;;5090185;28;20028;-57
2023/04/08 00:52:10;;;;;;;50.07;31.80;;;8.30;99.90;;;;;;5091497;28;20093;-55
2023/04/08 00:54:37;;;;;;;47.73;30.73;;;8.30;99.90;;;;;;5089785;28;20031;-57
2023/04/08 00:57:04;;;;;;;48.27;30.93;;;8.30;99.90;;;;;;5089923;28;20032;-56
2023/04/08 00:59:30;;;;;;;48.27;30.67;;;8.30;99.90;;;;;;5089917;28;20032;-57
2023/04/08 01:02:27;;;;;;;48.40;30.80;;;8.20;99.90;;;;;;5091698;28;20016;-57
2023/04/08 01:05:01;;;;;;;54.57;30.37;;;8.20;99.90;;;;;;5089393;28;20059;-54
2023/04/08 01:07:46;;;;;;;52.97;32.37;;;8.20;99.90;;;;;;5091137;28;20028;-57
2023/04/08 01:10:12;;;;;;;49.77;31.57;;;8.10;99.90;;;;;;5091314;28;20538;-57
2023/04/08 01:12:54;;;;;;;48.87;31.60;;;8.10;99.90;;;;;;5091132;28;20496;-58
2023/04/08 01:15:21;;;;;;;51.10;30.73;;;8.10;99.90;;;;;;5100592;22;20086;-52
2023/04/08 01:17:49;;;;;;;51.53;31.83;;;8.10;99.90;;;;;;5089552;28;20028;-49
2023/04/08 01:20:16;;;;;;;50.07;30.83;;;8.10;99.90;;;;;;5090958;28;20032;-53
2023/04/08 01:23:29;;;;;;;51.57;31.60;;;8.10;99.90;;;;;;5089802;28;20032;-50
2023/04/08 01:25:56;;;;;;;48.30;29.90;;;8.10;99.90;;;;;;5091183;28;20046;-51
2023/04/08 01:28:25;;;;;;;48.87;30.37;;;8.10;99.90;;;;;;5089520;28;20123;-51
2023/04/08 01:30:54;;;;;;;49.00;30.80;;;8.10;99.90;;;;;;5089495;28;20114;-52
2023/04/08 01:33:21;;;;;;;47.10;31.03;;;8.10;99.90;;;;;;5090660;28;20032;-52
2023/04/08 01:35:47;;;;;;;48.20;30.93;;;8.00;99.90;;;;;;5090655;28;20040;-50
2023/04/08 01:38:19;;;;;;;50.07;32.70;;;8.00;99.90;;;;;;5090603;28;20020;-49
2023/04/08 01:40:46;;;;;;;48.87;30.97;;;8.00;99.90;;;;;;5090733;28;20028;-51
2023/04/08 01:43:16;;;;;;;53.80;32.13;;;7.90;99.90;;;;;;5090800;28;20484;-52
2023/04/08 01:45:48;;;;;;;54.80;32.63;;;8.00;99.90;;;;;;5090598;28;20093;-54
2023/04/08 01:48:14;;;;;;;50.90;31.53;;;7.90;99.90;;;;;;5089376;28;20098;-50
2023/04/08 01:50:44;;;;;;;51.07;30.83;;;7.90;99.90;;;;;;5090668;28;20038;-50
2023/04/08 01:53:12;;;;;;;50.07;31.83;;;7.90;99.90;;;;;;5089432;28;20501;-51
2023/04/08 01:55:39;;;;;;;56.33;32.60;;;7.90;99.90;;;;;;5089016;28;20031;-50
2023/04/08 01:58:07;;;;;;;53.33;32.10;;;7.90;99.90;;;;;;5090403;28;20484;-54
2023/04/08 02:00:34;;;;;;;52.90;32.27;;;7.90;99.90;;;;;;5089249;28;20020;-50
2023/04/08 02:03:01;;;;;;;51.77;32.47;;;8.00;99.90;;;;;;5089047;28;20051;-48
2023/04/08 02:05:27;;;;;;;53.50;32.20;;;7.90;99.90;;;;;;5090570;28;20385;-50
2023/04/08 02:07:53;;;;;;;51.73;32.07;;;7.90;99.90;;;;;;5090339;28;20028;-52
2023/04/08 02:10:19;;;;;;;50.27;31.77;;;7.90;99.90;;;;;;5090412;28;20112;-52
2023/04/08 02:12:45;;;;;;;50.90;32.57;;;7.90;99.90;;;;;;5089525;28;20032;-49
2023/04/08 02:15:13;;;;;;;53.77;33.03;;;7.90;99.90;;;;;;5091072;28;20047;-49
2023/04/08 02:17:51;;;;;;;52.50;32.53;;;7.80;99.90;;;;;;5094958;28;20036;-48
2023/04/08 02:20:31;;;;;;;52.27;32.83;;;7.80;99.90;;;;;;5094001;28;20032;-50
2023/04/08 02:23:09;;;;;;;54.23;33.37;;;7.70;99.90;;;;;;5094256;28;20074;-48
2023/04/08 02:25:38;;;;;;;57.17;35.37;;;7.60;99.90;;;;;;5095275;28;20028;-49
2023/04/08 02:28:08;;;;;;;55.42;33.53;;;7.60;99.90;;;;;;5095130;28;20476;-50
2023/04/08 02:30:40;;;;;;;56.63;34.03;;;7.60;99.90;;;;;;5094720;28;20416;-52
2023/04/08 02:33:07;;;;;;;54.53;33.50;;;7.60;99.90;;;;;;5093120;28;20035;-51
2023/04/08 02:35:35;;;;;;;53.00;33.37;;;7.50;99.90;;;;;;5092733;28;20039;-52
2023/04/08 02:38:00;;;;;;;55.47;34.07;;;7.50;99.90;;;;;;5094074;28;20062;-49
2023/04/08 02:40:30;;;;;;;58.87;35.47;;;7.40;99.90;;;;;;5092649;28;20032;-49
2023/04/08 02:42:56;;;;;;;60.00;34.43;;;7.40;99.90;;;;;;5092852;28;20069;-54
2023/04/08 02:45:28;;;;;;;58.43;34.57;;;7.40;99.90;;;;;;5092489;28;20020;-49
2023/04/08 02:47:54;;;;;;;57.00;33.50;;;7.30;99.90;;;;;;5093954;28;20027;-52
2023/04/08 02:50:20;;;;;;;59.13;34.53;;;7.30;99.90;;;;;;5092636;28;20403;-52
2023/04/08 02:52:46;;;;;;;54.30;33.37;;;7.20;99.90;;;;;;5092752;28;20035;-49
2023/04/08 02:55:12;;;;;;;50.53;31.53;;;7.10;99.90;;;;;;5092301;28;20035;-50
2023/04/08 02:57:41;;;;;;;59.33;34.67;;;7.00;99.90;;;;;;5093643;28;20472;-50
2023/04/08 03:00:08;;;;;;;59.33;33.47;;;7.00;99.90;;;;;;5093628;28;20028;-47
2023/04/08 03:02:34;;;;;;;55.80;31.33;;;7.00;99.90;;;;;;5093802;28;20489;-51
2023/04/08 03:05:00;;;;;;;53.67;31.03;;;6.90;99.90;;;;;;5094012;28;20028;-48
2023/04/08 03:07:26;;;;;;;59.57;34.13;;;6.80;99.90;;;;;;5094439;28;20523;-52
2023/04/08 03:09:53;;;;;;;54.40;32.03;;;6.70;99.90;;;;;;5095430;28;20039;-49
2023/04/08 03:12:20;;;;;;;58.00;32.27;;;6.70;99.90;;;;;;5095355;28;20426;-50
2023/04/08 03:14:46;;;;;;;61.17;34.20;;;6.70;99.90;;;;;;5095369;28;20138;-50
2023/04/08 03:17:11;;;;;;;65.00;33.30;;;6.60;99.90;;;;;;5095597;28;20487;-54
2023/04/08 03:19:37;;;;;;;62.53;33.80;;;6.50;99.90;;;;;;5094259;28;20107;-52
2023/04/08 03:22:03;;;;;;;62.27;34.77;;;6.40;99.90;;;;;;5093296;28;20028;-51
2023/04/08 03:24:28;;;;;;;61.70;33.93;;;6.40;99.90;;;;;;5093033;28;20093;-50
2023/04/08 03:26:54;;;;;;;513.60;46.40;;;6.40;99.90;;;;;;5093013;28;20032;-51
2023/04/08 03:29:20;;;;;;;62.80;33.50;;;6.30;99.90;;;;;;5093202;28;20054;-50
2023/04/08 03:31:45;;;;;;;61.70;31.43;;;6.20;99.90;;;;;;5093220;28;20467;-51
2023/04/08 03:34:11;;;;;;;60.67;33.00;;;6.20;99.90;;;;;;5093007;28;20048;-51
2023/04/08 03:36:37;;;;;;;66.63;34.83;;;6.20;99.90;;;;;;5092641;28;20377;-51
2023/04/08 03:39:03;;;;;;;63.43;32.90;;;6.10;99.90;;;;;;5092987;28;20121;-51
2023/04/08 03:41:29;;;;;;;65.50;33.57;;;6.00;99.90;;;;;;5092882;28;20396;-52
2023/04/08 03:43:55;;;;;;;63.37;33.67;;;5.90;99.90;;;;;;5092740;28;20059;-50
2023/04/08 03:46:21;;;;;;;65.77;34.70;;;5.90;99.90;;;;;;5092692;28;20051;-49
2023/04/08 03:48:47;;;;;;;66.10;34.17;;;5.80;99.90;;;;;;5092741;28;20028;-52
2023/04/08 03:51:13;;;;;;;66.67;34.93;;;5.80;99.90;;;;;;5092672;28;20057;-50
2023/04/08 03:53:38;;;;;;;66.60;35.17;;;5.80;99.90;;;;;;5091383;28;20472;-49
2023/04/08 03:56:05;;;;;;;66.03;33.80;;;5.70;99.90;;;;;;5092883;28;20028;-52
2023/04/08 03:58:31;;;;;;;70.10;35.10;;;5.70;99.90;;;;;;5092640;28;20035;-51
2023/04/08 04:00:57;;;;;;;67.27;35.70;;;5.70;99.90;;;;;;5092605;28;20035;-51
2023/04/08 04:03:23;;;;;;;62.60;34.13;;;5.60;99.90;;;;;;5092442;28;20099;-53
2023/04/08 04:05:49;;;;;;;68.57;34.90;;;5.60;99.90;;;;;;5092828;28;20028;-51
2023/04/08 04:08:15;;;;;;;62.20;34.00;;;5.50;99.90;;;;;;5092509;28;20062;-51
2023/04/08 04:10:41;;;;;;;69.47;35.70;;;5.50;99.90;;;;;;5092459;28;20063;-52
2023/04/08 04:13:07;;;;;;;66.77;35.77;;;5.40;99.90;;;;;;5091134;28;20028;-53
2023/04/08 04:15:32;;;;;;;63.90;33.57;;;5.40;99.90;;;;;;5092118;28;20032;-52
2023/04/08 04:17:58;;;;;;;64.17;33.43;;;5.40;99.90;;;;;;5092125;28;20028;-49
2023/04/08 04:20:24;;;;;;;67.93;33.83;;;5.40;99.90;;;;;;5090788;28;20024;-51
2023/04/08 04:22:50;;;;;;;85.23;36.57;;;5.40;99.90;;;;;;5092225;28;20409;-51
2023/04/08 04:25:16;;;;;;;573.60;53.67;;;5.40;99.90;;;;;;5092207;28;20063;-51
2023/04/08 04:27:42;;;;;;;114.57;39.07;;;5.40;99.90;;;;;;5091922;28;20106;-52
2023/04/08 04:30:08;;;;;;;95.33;39.50;;;5.40;99.90;;;;;;5092029;28;20061;-53
2023/04/08 04:32:34;;;;;;;131.90;41.77;;;5.40;99.90;;;;;;5091970;28;20462;-51
2023/04/08 04:35:00;;;;;;;135.07;42.30;;;5.50;99.90;;;;;;5091527;28;20118;-50
2023/04/08 04:37:26;;;;;;;497.63;54.60;;;5.60;99.90;;;;;;5091666;28;20085;-50
2023/04/08 04:39:52;;;;;;;147.47;42.37;;;5.60;99.90;;;;;;5091265;28;20032;-50
2023/04/08 04:42:17;;;;;;;159.67;43.50;;;5.70;99.90;;;;;;5092008;28;20028;-52
2023/04/08 04:44:43;;;;;;;157.30;43.03;;;5.70;99.90;;;;;;5091472;28;20024;-51
2023/04/08 04:47:09;;;;;;;158.83;41.00;;;5.70;99.90;;;;;;5091635;28;20400;-53
2023/04/08 04:49:35;;;;;;;112.60;40.57;;;5.80;99.90;;;;;;5091451;28;20024;-54
2023/04/08 04:52:00;;;;;;;95.57;40.90;;;5.80;99.90;;;;;;5091572;28;20075;-50
2023/04/08 04:54:26;;;;;;;143.53;42.07;;;5.90;99.90;;;;;;5091416;28;20025;-53
2023/04/08 04:56:52;;;;;;;502.43;52.97;;;5.90;99.90;;;;;;5091509;28;20164;-48
2023/04/08 04:59:18;;;;;;;678.30;61.73;;;5.80;99.90;;;;;;5091812;28;20055;-51
2023/04/08 05:01:43;;;;;;;615.17;62.00;;;5.80;99.90;;;;;;5091469;28;20115;-48
2023/04/08 05:04:09;;;;;;;512.47;56.73;;;5.70;99.90;;;;;;5091081;28;20480;-51
2023/04/08 05:06:35;;;;;;;683.20;69.97;;;5.70;99.90;;;;;;5091154;28;20028;-54
2023/04/08 05:09:01;;;;;;;439.17;59.63;;;5.60;99.90;;;;;;5091249;28;20048;-52
2023/04/08 05:11:26;;;;;;;752.20;73.60;;;5.70;99.90;;;;;;5091428;28;20032;-51
2023/04/08 05:13:52;;;;;;;604.13;67.10;;;5.70;99.90;;;;;;5091043;28;20102;-51
2023/04/08 05:16:18;;;;;;;612.30;68.23;;;5.70;99.90;;;;;;5091013;28;20508;-52
2023/04/08 05:18:44;;;;;;;337.60;57.43;;;5.70;99.90;;;;;;5090943;28;20028;-52
2023/04/08 05:21:09;;;;;;;435.43;63.67;;;5.70;99.90;;;;;;5091261;28;20507;-51
2023/04/08 05:23:35;;;;;;;142.37;49.67;;;5.70;99.90;;;;;;5090800;28;20476;-49
2023/04/08 05:26:01;;;;;;;179.93;51.87;;;5.80;99.90;;;;;;5091020;28;20031;-52
2023/04/08 05:28:26;;;;;;;170.93;52.63;;;5.80;99.90;;;;;;5091104;28;20460;-53
2023/04/08 05:30:53;;;;;;;177.70;52.63;;;5.90;99.90;;;;;;5090959;28;20034;-53
2023/04/08 05:33:19;;;;;;;180.57;51.43;;;6.00;99.90;;;;;;5090636;28;20036;-54
2023/04/08 05:35:45;;;;;;;246.07;52.40;;;6.10;99.90;;;;;;5090740;28;20114;-52
2023/04/08 05:38:11;;;;;;;186.40;51.67;;;6.10;99.90;;;;;;5090804;28;20126;-49
2023/04/08 05:40:37;;;;;;;685.00;70.57;;;6.20;99.90;;;;;;5090706;28;20114;-52
2023/04/08 05:43:02;;;;;;;882.20;81.83;;;6.20;99.90;;;;;;5090827;28;20032;-52
2023/04/08 05:45:28;;;;;;;149.70;50.77;;;6.10;99.90;;;;;;5090553;28;20032;-52
2023/04/08 05:47:54;;;;;;;709.43;74.00;;;6.20;99.90;;;;;;5090566;28;20076;-51
2023/04/08 05:50:20;;;;;;;541.03;66.37;;;6.20;99.90;;;;;;5089640;28;20484;-54
2023/04/08 05:52:46;;;;;;;806.60;77.97;;;6.20;99.90;;;;;;5090767;28;20492;-53
2023/04/08 05:55:13;;;;;;;793.83;76.00;;;6.20;99.90;;;;;;5090517;28;20024;-53
2023/04/08 05:57:39;;;;;;;239.60;54.13;;;6.20;99.90;;;;;;5090452;28;20036;-51
2023/04/08 06:00:07;;;;;;;272.00;54.10;;;6.30;99.90;;;;;;5091082;28;20482;-50
2023/04/08 06:02:34;;;;;;;133.20;48.40;;;6.30;99.90;;;;;;5090392;28;20044;-47
2023/04/08 06:05:00;;;;;;;190.50;48.90;;;6.40;99.90;;;;;;5090336;28;20111;-53
2023/04/08 06:07:26;;;;;;;905.70;78.00;;;6.40;99.90;;;;;;5090417;28;20035;-50
2023/04/08 06:09:51;;;;;;;560.83;62.30;;;6.40;99.90;;;;;;5090584;28;20020;-48
2023/04/08 06:12:17;;;;;;;465.10;60.30;;;6.30;99.90;;;;;;5090641;28;20438;-51
2023/04/08 06:14:43;;;;;;;654.67;67.70;;;6.30;99.90;;;;;;5090036;28;20032;-50
2023/04/08 06:17:08;;;;;;;567.37;64.70;;;6.20;99.90;;;;;;5090090;28;20035;-52
2023/04/08 06:19:34;;;;;;;678.20;73.10;;;6.30;99.90;;;;;;5090294;28;20035;-51
2023/04/08 06:22:00;;;;;;;609.90;69.90;;;6.20;99.90;;;;;;5090506;28;20028;-52
2023/04/08 06:24:26;;;;;;;235.63;58.67;;;6.20;99.90;;;;;;5090611;28;20059;-52
2023/04/08 06:26:53;;;;;;;296.27;60.77;;;6.30;99.90;;;;;;5090168;28;20111;-52
2023/04/08 06:29:22;;;;;;;339.80;62.77;;;6.30;99.90;;;;;;5090409;28;20032;-52
2023/04/08 06:31:48;;;;;;;;;;;6.40;99.90;;;;;;5090939;28;20435;-51
2023/04/08 06:34:14;;;;;;;551.77;71.13;;;6.50;99.90;;;;;;5090094;28;19904;-50
2023/04/08 06:36:40;;;;;;;624.67;66.50;;;6.50;99.90;;;;;;5090123;28;20028;-50
2023/04/08 06:39:06;;;;;;;886.47;85.27;;;6.50;99.90;;;;;;5090433;28;20456;-50
2023/04/08 06:41:31;;;;;;;279.40;61.90;;;6.50;99.90;;;;;;5090284;28;20103;-51
2023/04/08 06:44:03;;;;;;;334.37;63.93;;;6.50;99.90;;;;;;5088932;28;20426;-50
2023/04/08 06:46:29;;;;;;;715.33;78.57;;;6.60;99.90;;;;;;5088775;28;20028;-54
2023/04/08 06:48:55;;;;;;;340.60;65.30;;;6.60;99.90;;;;;;5090305;28;20150;-53
2023/04/08 06:51:20;;;;;;;314.17;61.53;;;6.60;99.90;;;;;;5090552;28;20060;-50
2023/04/08 06:53:46;;;;;;;629.07;76.37;;;6.70;99.90;;;;;;5090299;28;20058;-51
2023/04/08 06:56:12;;;;;;;794.60;85.23;;;6.80;99.90;;;;;;5090374;28;20028;-49
2023/04/08 06:58:38;;;;;;;312.77;66.63;;;6.70;99.90;;;;;;5090250;28;20610;-52
2023/04/08 07:01:03;;;;;;;550.90;76.93;;;6.80;99.90;;;;;;5090368;28;20557;-53
2023/04/08 07:03:29;;;;;;;265.83;66.17;;;6.80;99.90;;;;;;5093790;28;20031;-52
2023/04/08 07:05:55;;;;;;;511.47;76.57;;;6.90;99.90;;;;;;5094203;28;20480;-53
2023/04/08 07:08:20;;;;;;;436.90;73.87;;;6.90;99.90;;;;;;5094041;28;20077;-52
2023/04/08 07:10:46;;;;;;;382.87;74.20;;;6.90;99.90;;;;;;5094025;28;20039;-52
2023/04/08 07:13:12;;;;;;;351.90;75.53;;;6.90;99.90;;;;;;5093911;28;20040;-52
2023/04/08 07:15:37;;;;;;;338.43;72.13;;;6.90;99.90;;;;;;5104751;22;20033;-50
2023/04/08 07:18:04;;;;;;;312.67;65.13;;;7.10;99.90;;;;;;5093682;28;20556;-51
2023/04/08 07:20:30;;;;;;;377.07;67.13;;;7.10;99.90;;;;;;5093664;28;20639;-51
2023/04/08 07:22:56;;;;;;;316.47;64.93;;;7.10;99.90;;;;;;5093819;28;20027;-51
2023/04/08 07:25:21;;;;;;;406.03;63.50;;;7.20;99.90;;;;;;5093521;28;20054;-50
2023/04/08 07:27:47;;;;;;;218.40;56.97;;;7.20;99.90;;;;;;5093342;28;20023;-49
2023/04/08 07:30:13;;;;;;;198.13;54.60;;;7.20;99.90;;;;;;5093371;28;20400;-50
2023/04/08 07:32:39;;;;;;;286.33;53.50;;;7.30;99.90;;;;;;5093423;28;20039;-50
2023/04/08 07:35:05;;;;;;;327.60;56.57;;;7.20;99.90;;;;;;5093079;28;20039;-49
2023/04/08 07:37:31;;;;;;;265.00;55.53;;;7.10;99.90;;;;;;5093065;28;20036;-51
2023/04/08 07:39:56;;;;;;;171.83;52.13;;;7.10;99.90;;;;;;5093239;28;20507;-49
2023/04/08 07:42:22;;;;;;;172.83;52.57;;;7.20;99.90;;;;;;5093189;28;20047;-50
2023/04/08 07:44:48;;;;;;;155.47;52.67;;;7.20;99.90;;;;;;5092728;28;20055;-48
2023/04/08 07:47:13;;;;;;;151.00;49.47;;;7.30;99.90;;;;;;5093011;28;20024;-52
2023/04/08 07:49:39;;;;;;;151.77;50.80;;;7.30;99.90;;;;;;5093139;28;20390;-52
2023/04/08 07:52:05;;;;;;;172.17;49.10;;;7.30;99.90;;;;;;5093013;28;20032;-49
2023/04/08 07:54:34;;;;;;;157.77;47.77;;;7.20;99.90;;;;;;5092806;28;20403;-49
2023/04/08 07:57:01;;;;;;;151.95;51.90;;;7.20;99.90;;;;;;5092561;28;20068;-49
2023/04/08 07:59:27;;;;;;;163.40;50.23;;;7.10;99.90;;;;;;5092681;28;20036;-48
2023/04/08 08:01:53;;;;;;;155.60;49.47;;;7.20;99.90;;;;;;5092569;28;20086;-48
2023/04/08 08:04:18;;;;;;;175.30;52.77;;;7.30;99.90;;;;;;5092668;28;20036;-49
2023/04/08 08:06:45;;;;;;;190.80;53.67;;;7.20;99.90;;;;;;5092823;28;20085;-51
2023/04/08 08:09:10;;;;;;;187.37;54.63;;;7.10;99.90;;;;;;5092692;28;20104;-50
2023/04/08 08:11:36;;;;;;;180.83;58.03;;;7.00;99.90;;;;;;5092529;28;20485;-49
2023/04/08 08:14:03;;;;;;;207.30;58.37;;;7.00;99.90;;;;;;5091169;28;20031;-49
2023/04/08 08:16:30;;;;;;;205.23;60.20;;;7.00;99.90;;;;;;5092297;28;20046;-52
2023/04/08 08:18:56;;;;;;;265.10;68.33;;;7.00;99.90;;;;;;5092388;28;20111;-53
2023/04/08 08:21:22;;;;;;;242.17;67.80;;;6.90;99.90;;;;;;5092345;28;20123;-52
2023/04/08 08:23:48;;;;;;;255.50;67.67;;;7.00;99.90;;;;;;5092270;28;20044;-51
2023/04/08 08:26:13;;;;;;;227.53;64.73;;;6.90;99.90;;;;;;5092233;28;20594;-48
2023/04/08 08:28:39;;;;;;;216.67;64.83;;;7.00;99.90;;;;;;5091948;28;20107;-51
2023/04/08 08:31:05;;;;;;;237.70;64.13;;;7.00;99.90;;;;;;5092161;28;20028;-52
2023/04/08 08:33:32;;;;;;;218.00;65.53;;;6.90;99.90;;;;;;5091915;28;20119;-49
2023/04/08 08:35:57;;;;;;;221.20;67.87;;;6.90;99.90;;;;;;5091990;28;20396;-48
2023/04/08 08:38:24;;;;;;;223.57;65.40;;;6.90;99.90;;;;;;5091843;28;20036;-51
2023/04/08 08:40:56;;;;;;;218.60;68.73;;;6.80;99.90;;;;;;5091818;28;20400;-50
2023/04/08 08:43:23;;;;;;;237.93;70.60;;;6.80;99.90;;;;;;5091764;28;20020;-48
2023/04/08 08:45:49;;;;;;;254.73;74.03;;;6.80;99.90;;;;;;5092039;28;20028;-51
2023/04/08 08:48:15;;;;;;;231.07;75.20;;;6.90;99.90;;;;;;5091713;28;20510;-50
2023/04/08 08:50:40;;;;;;;211.07;70.93;;;6.90;99.90;;;;;;5091703;28;20135;-51
2023/04/08 08:53:06;;;;;;;205.40;71.90;;;7.10;99.90;;;;;;5091716;28;20036;-51
2023/04/08 08:55:35;;;;;;;212.43;72.10;;;7.20;99.90;;;;;;5091271;28;20365;-51
2023/04/08 08:58:01;;;;;;;219.45;71.80;;;7.20;99.90;;;;;;5091406;28;20035;-51
2023/04/08 09:00:37;;;;;;;204.27;70.57;;;7.40;99.90;;;;;;5091497;28;20401;-51
2023/04/08 09:03:24;;;;;;;182.27;64.67;;;7.50;99.90;;;;;;5091492;28;20020;-49
2023/04/08 09:05:52;;;;;;;142.40;59.30;;;7.70;99.90;;;;;;5091368;28;20389;-51
2023/04/08 09:08:30;;;;;;;146.53;57.00;;;7.80;99.90;;;;;;5091650;28;20046;-51
2023/04/08 09:11:14;;;;;;;131.50;55.83;;;7.90;99.90;;;;;;5091771;28;20123;-50
2023/04/08 09:13:41;;;;;;;123.90;54.50;;;8.10;99.90;;;;;;5089821;28;20793;-50
2023/04/08 09:16:09;;;;;;;106.13;49.50;;;8.20;99.90;;;;;;5091025;28;20104;-50
2023/04/08 09:18:36;;;;;;;102.13;48.47;;;8.30;99.90;;;;;;5089872;28;20460;-48
2023/04/08 09:21:03;;;;;;;94.10;45.97;;;8.50;99.90;;;;;;5091086;28;20040;-49
2023/04/08 09:23:41;;;;;;;99.00;47.63;;;8.60;99.90;;;;;;5090937;28;20028;-50
2023/04/08 09:26:12;;;;;;;84.57;44.00;;;9.00;99.90;;;;;;5090894;28;20020;-48
2023/04/08 09:28:38;;;;;;;84.60;44.97;;;9.00;99.90;;;;;;5090723;28;20020;-48
2023/04/08 09:31:27;;;;;;;81.50;43.87;;;9.10;99.90;;;;;;5090864;28;20089;-49
2023/04/08 09:33:57;;;;;;;66.25;38.92;;;9.00;99.90;;;;;;5090781;28;20036;-47
2023/04/08 09:36:25;;;;;;;57.47;36.40;;;9.00;99.90;;;;;;5090548;28;20060;-50
2023/04/08 09:38:51;;;;;;;55.87;37.37;;;9.10;99.90;;;;;;5090628;28;20031;-51
2023/04/08 09:41:19;;;;;;;59.37;39.03;;;9.20;99.90;;;;;;5090552;28;20024;-49
2023/04/08 09:43:51;;;;;;;58.77;38.30;;;9.50;99.90;;;;;;5090614;28;20032;-51
2023/04/08 09:46:22;;;;;;;59.30;38.00;;;9.60;99.90;;;;;;5090525;28;20123;-52
2023/04/08 09:48:55;;;;;;;60.00;37.77;;;9.70;99.90;;;;;;5090649;28;20031;-51
2023/04/08 09:51:22;;;;;;;58.53;37.93;;;9.60;99.90;;;;;;5090738;28;20101;-50
2023/04/08 09:53:58;;;;;;;53.10;36.33;;;9.80;99.90;;;;;;5090195;28;20032;-51
2023/04/08 09:56:28;;;;;;;55.27;36.43;;;10.10;99.90;;;;;;5090170;28;20115;-51
2023/04/08 09:59:01;;;;;;;46.67;31.05;;;10.40;99.90;;;;;;5090347;28;20036;-52
2023/04/08 10:01:51;;;;;;;42.17;28.23;;;10.50;99.90;;;;;;5090453;28;20064;-49
2023/04/08 10:04:21;;;;;;;35.90;24.70;;;10.50;99.90;;;;;;5090262;28;20400;-49
2023/04/08 10:06:57;;;;;;;39.28;24.60;;;10.60;99.90;;;;;;5090561;28;20439;-51
2023/04/08 10:09:23;;;;;;;33.67;21.48;;;11.10;99.90;;;;;;5090458;28;20028;-52
2023/04/08 10:11:49;;;;;;;26.48;20.13;;;11.40;99.90;;;;;;5090403;28;20047;-52
2023/04/08 10:14:15;;;;;;;27.63;19.90;;;11.60;99.90;;;;;;5090211;28;20082;-50
2023/04/08 10:16:41;;;;;;;28.50;20.17;;;11.80;99.90;;;;;;5089936;28;20543;-52
2023/04/08 10:19:40;;;;;;;23.55;17.98;;;12.10;99.90;;;;;;5090456;28;20120;-49
2023/04/08 10:22:31;;;;;;;23.63;17.58;;;12.10;99.90;;;;;;5090427;28;20024;-50
2023/04/08 10:25:15;;;;;;;22.98;15.63;;;11.90;99.90;;;;;;5085504;28;20111;-52
2023/04/08 10:27:42;;;;;;;19.65;15.00;;;12.10;99.90;;;;;;5090049;28;20086;-48
2023/04/08 10:30:26;;;;;;;20.58;15.88;;;12.70;99.90;;;;;;5090271;28;20040;-52
2023/04/08 10:32:55;;;;;;;22.63;16.98;;;12.60;99.90;;;;;;5090267;28;20055;-48
2023/04/08 10:35:29;;;;;;;20.98;16.30;;;12.30;99.90;;;;;;5089744;28;20034;-51
2023/04/08 10:37:55;;;;;;;21.05;15.00;;;12.10;99.90;;;;;;5092885;28;20042;-51
2023/04/08 10:40:20;;;;;;;21.25;14.23;;;11.90;99.90;;;;;;5093907;28;20039;-52
2023/04/08 10:42:46;;;;;;;18.70;12.32;;;12.00;99.90;;;;;;5094094;28;20032;-51
2023/04/08 10:45:18;;;;;;;17.83;12.23;;;12.10;99.90;;;;;;5093823;28;20032;-48
2023/04/08 10:47:44;;;;;;;19.67;12.80;;;12.20;99.90;;;;;;5093694;28;20032;-48
2023/04/08 10:50:18;;;;;;;17.95;11.30;;;11.90;99.90;;;;;;5093764;28;20035;-48
2023/04/08 10:52:52;;;;;;;12.98;8.93;;;12.00;99.90;;;;;;5093898;28;20028;-52
2023/04/08 10:55:24;;;;;;;12.52;9.10;;;11.80;99.90;;;;;;5093375;28;20579;-49
2023/04/08 10:57:50;;;;;;;13.68;9.45;;;11.60;99.90;;;;;;5093925;28;20077;-49
2023/04/08 11:00:32;;;;;;;14.88;9.57;;;11.20;99.90;;;;;;5093584;28;20030;-49
2023/04/08 11:03:06;;;;;;;12.95;9.07;;;11.20;99.90;;;;;;5093682;28;20032;-52
2023/04/08 11:05:32;;;;;;;14.50;9.73;;;11.10;99.90;;;;;;5093456;28;20036;-47
2023/04/08 11:07:59;;;;;;;13.13;9.75;;;11.10;99.90;;;;;;5093663;28;20099;-52
2023/04/08 11:10:25;;;;;;;12.13;8.68;;;10.80;99.90;;;;;;5092153;28;20137;-50
2023/04/08 11:12:54;;;;;;;13.20;9.73;;;10.70;99.90;;;;;;5093909;28;20059;-47
2023/04/08 11:15:20;;;;;;;14.30;9.38;;;10.70;99.90;;;;;;5093038;28;20031;-49
2023/04/08 11:17:47;;;;;;;12.60;9.52;;;10.60;99.90;;;;;;5093476;28;20031;-47
2023/04/08 11:20:13;;;;;;;16.27;10.23;;;10.40;99.90;;;;;;5093149;28;20085;-49
2023/04/08 11:22:39;;;;;;;13.80;9.77;;;10.50;99.90;;;;;;5093355;28;20024;-48
2023/04/08 11:25:08;;;;;;;12.03;9.53;;;10.30;99.90;;;;;;5092931;28;20028;-48
2023/04/08 11:27:35;;;;;;;;;;;10.30;99.90;;;;;;5093490;28;20397;-49
2023/04/08 11:30:02;;;;;;;15.57;9.60;;;10.30;99.90;;;;;;5093045;28;20339;-48
2023/04/08 11:32:29;;;;;;;13.73;9.70;;;10.20;99.90;;;;;;5093652;28;20070;-49
2023/04/08 11:34:54;;;;;;;15.87;10.27;;;10.30;99.90;;;;;;5093039;28;20039;-49
2023/04/08 11:37:21;;;;;;;13.80;9.57;;;10.40;99.90;;;;;;5092897;28;20028;-48
2023/04/08 11:39:46;;;;;;;14.83;9.57;;;10.60;99.90;;;;;;5092898;28;20394;-47
2023/04/08 11:42:31;;;;;;;13.77;9.37;;;10.70;99.90;;;;;;5091362;28;20036;-47
2023/04/08 11:44:58;;;;;;;12.73;9.17;;;10.70;99.90;;;;;;5092686;28;20024;-49
2023/04/08 11:47:33;;;;;;;15.30;9.68;;;10.70;99.90;;;;;;5092822;28;20161;-50
2023/04/08 11:50:00;;;;;;;13.83;9.40;;;10.70;99.90;;;;;;5092776;28;20054;-51
2023/04/08 11:52:48;;;;;;;12.87;9.67;;;10.70;99.90;;;;;;5092780;28;20504;-49
2023/04/08 11:55:27;;;;;;;11.93;9.07;;;10.60;99.90;;;;;;5092558;28;20107;-47
2023/04/08 11:57:54;;;;;;;16.30;10.48;;;10.60;99.90;;;;;;5092383;28;20445;-49
2023/04/08 12:00:20;;;;;;;15.83;10.10;;;10.40;99.90;;;;;;5092524;28;20308;-50
2023/04/08 12:02:46;;;;;;;15.10;10.33;;;10.60;99.90;;;;;;5092483;28;20066;-49
2023/04/08 12:05:13;;;;;;;14.05;10.13;;;10.70;99.90;;;;;;5092056;28;20035;-51
2023/04/08 12:07:39;;;;;;;13.77;9.85;;;10.80;99.90;;;;;;5091038;28;20571;-47
2023/04/08 12:10:05;;;;;;;12.93;9.90;;;11.00;99.90;;;;;;5092244;28;20023;-51
2023/04/08 12:12:31;;;;;;;14.68;9.15;;;11.10;99.90;;;;;;5092644;28;20107;-51
2023/04/08 12:14:57;;;;;;;18.23;9.65;;;11.30;99.90;;;;;;5092146;28;20107;-49
2023/04/08 12:17:22;;;;;;;14.55;9.15;;;11.50;99.90;;;;;;5091762;28;20381;-51
2023/04/08 12:19:48;;;;;;;11.93;8.55;;;11.40;99.90;;;;;;5092077;28;20036;-50
2023/04/08 12:22:15;;;;;;;14.73;9.02;;;11.40;99.90;;;;;;5091991;28;20034;-50
2023/04/08 12:24:40;;;;;;;12.82;9.00;;;11.40;99.90;;;;;;5091878;28;20047;-47
2023/04/08 12:27:06;;;;;;;12.10;8.48;;;11.60;99.90;;;;;;5091772;28;20056;-53
2023/04/08 12:29:32;;;;;;;14.35;9.13;;;11.70;99.90;;;;;;5092055;28;20445;-51
2023/04/08 12:31:58;;;;;;;13.80;8.85;;;11.70;99.90;;;;;;5091953;28;20036;-51
2023/04/08 12:34:24;;;;;;;16.15;8.55;;;11.60;99.90;;;;;;5091629;28;20036;-49
2023/04/08 12:36:50;;;;;;;12.60;8.75;;;11.60;99.90;;;;;;5091540;28;20172;-51